sensor_id;sensor_type;location;lat;lon;timestamp;P1;durP1;ratioP1;P2;durP2;ratioP2
5191;SDS011;2615;44.524;11.284;2023-11-21T00:00:39;45.73;;;31.67;;
5191;SDS011;2615;44.524;11.284;2023-11-21T00:03:08;55.93;;;35.53;;
5191;SDS011;2615;44.524;11.284;2023-11-21T00:05:38;49.80;;;34.07;;
5191;SDS011;2615;44.524;11.284;2023-11-21T00:08:07;48.60;;;34.27;;
5191;SDS011;2615;44.524;11.284;2023-11-21T00:10:36;50.73;;;33.37;;
5191;SDS011;2615;44.524;11.284;2023-11-21T00:13:06;56.57;;;37.53;;
5191;SDS011;2615;44.524;11.284;2023-11-21T00:15:35;59.20;;;37.27;;
5191;SDS011;2615;44.524;11.284;2023-11-21T00:18:03;53.40;;;38.17;;
5191;SDS011;2615;44.524;11.284;2023-11-21T00:20:31;49.20;;;35.50;;
5191;SDS011;2615;44.524;11.284;2023-11-21T00:22:59;57.43;;;39.43;;
5191;SDS011;2615;44.524;11.284;2023-11-21T00:25:28;62.37;;;38.60;;
5191;SDS011;2615;44.524;11.284;2023-11-21T00:27:57;58.17;;;38.93;;
5191;SDS011;2615;44.524;11.284;2023-11-21T00:30:29;56.40;;;35.83;;
5191;SDS011;2615;44.524;11.284;2023-11-21T00:32:58;55.20;;;36.10;;
5191;SDS011;2615;44.524;11.284;2023-11-21T00:35:26;53.93;;;37.67;;
5191;SDS011;2615;44.524;11.284;2023-11-21T00:37:54;55.10;;;37.63;;
5191;SDS011;2615;44.524;11.284;2023-11-21T00:40:24;56.30;;;35.20;;
5191;SDS011;2615;44.524;11.284;2023-11-21T00:42:52;54.50;;;38.30;;
5191;SDS011;2615;44.524;11.284;2023-11-21T00:45:20;56.50;;;38.30;;
5191;SDS011;2615;44.524;11.284;2023-11-21T00:47:49;47.67;;;34.93;;
5191;SDS011;2615;44.524;11.284;2023-11-21T00:50:18;52.90;;;36.17;;
5191;SDS011;2615;44.524;11.284;2023-11-21T00:52:46;54.23;;;36.23;;
5191;SDS011;2615;44.524;11.284;2023-11-21T00:55:14;51.10;;;35.40;;
5191;SDS011;2615;44.524;11.284;2023-11-21T00:57:44;56.20;;;35.53;;
5191;SDS011;2615;44.524;11.284;2023-11-21T01:00:12;52.07;;;35.43;;
5191;SDS011;2615;44.524;11.284;2023-11-21T01:02:43;51.63;;;34.53;;
5191;SDS011;2615;44.524;11.284;2023-11-21T01:05:13;52.20;;;37.50;;
5191;SDS011;2615;44.524;11.284;2023-11-21T01:07:41;45.83;;;35.43;;
5191;SDS011;2615;44.524;11.284;2023-11-21T01:10:09;55.80;;;37.47;;
5191;SDS011;2615;44.524;11.284;2023-11-21T01:12:38;52.80;;;36.90;;
5191;SDS011;2615;44.524;11.284;2023-11-21T01:15:06;48.50;;;34.37;;
5191;SDS011;2615;44.524;11.284;2023-11-21T01:17:35;55.50;;;38.13;;
5191;SDS011;2615;44.524;11.284;2023-11-21T01:20:05;58.37;;;37.23;;
5191;SDS011;2615;44.524;11.284;2023-11-21T01:22:40;51.70;;;37.20;;
5191;SDS011;2615;44.524;11.284;2023-11-21T01:25:09;57.13;;;37.73;;
5191;SDS011;2615;44.524;11.284;2023-11-21T01:27:38;60.67;;;36.00;;
5191;SDS011;2615;44.524;11.284;2023-11-21T01:30:06;50.60;;;35.50;;
5191;SDS011;2615;44.524;11.284;2023-11-21T01:32:37;48.23;;;35.43;;
5191;SDS011;2615;44.524;11.284;2023-11-21T01:35:06;60.47;;;38.10;;
5191;SDS011;2615;44.524;11.284;2023-11-21T01:37:36;52.20;;;37.57;;
5191;SDS011;2615;44.524;11.284;2023-11-21T01:40:07;53.80;;;35.57;;
5191;SDS011;2615;44.524;11.284;2023-11-21T01:42:40;62.20;;;39.30;;
5191;SDS011;2615;44.524;11.284;2023-11-21T01:45:10;50.43;;;36.60;;
5191;SDS011;2615;44.524;11.284;2023-11-21T01:47:39;57.77;;;36.80;;
5191;SDS011;2615;44.524;11.284;2023-11-21T01:50:09;61.90;;;39.77;;
5191;SDS011;2615;44.524;11.284;2023-11-21T01:52:43;52.73;;;37.00;;
5191;SDS011;2615;44.524;11.284;2023-11-21T01:55:14;50.97;;;35.93;;
5191;SDS011;2615;44.524;11.284;2023-11-21T01:57:54;52.70;;;35.60;;
5191;SDS011;2615;44.524;11.284;2023-11-21T02:00:23;53.10;;;36.47;;
5191;SDS011;2615;44.524;11.284;2023-11-21T02:02:55;55.70;;;35.90;;
5191;SDS011;2615;44.524;11.284;2023-11-21T02:05:24;58.87;;;37.90;;
5191;SDS011;2615;44.524;11.284;2023-11-21T02:07:52;54.17;;;39.63;;
5191;SDS011;2615;44.524;11.284;2023-11-21T02:10:22;59.63;;;38.13;;
5191;SDS011;2615;44.524;11.284;2023-11-21T02:12:50;57.63;;;38.87;;
5191;SDS011;2615;44.524;11.284;2023-11-21T02:15:19;55.43;;;38.27;;
5191;SDS011;2615;44.524;11.284;2023-11-21T02:17:47;60.70;;;39.80;;
5191;SDS011;2615;44.524;11.284;2023-11-21T02:20:19;54.83;;;38.07;;
5191;SDS011;2615;44.524;11.284;2023-11-21T02:22:50;56.50;;;38.30;;
5191;SDS011;2615;44.524;11.284;2023-11-21T02:25:24;58.47;;;38.67;;
5191;SDS011;2615;44.524;11.284;2023-11-21T02:27:52;56.03;;;37.47;;
5191;SDS011;2615;44.524;11.284;2023-11-21T02:30:21;58.77;;;37.03;;
5191;SDS011;2615;44.524;11.284;2023-11-21T02:32:51;57.80;;;38.70;;
5191;SDS011;2615;44.524;11.284;2023-11-21T02:35:20;57.67;;;35.87;;
5191;SDS011;2615;44.524;11.284;2023-11-21T02:37:48;52.03;;;34.23;;
5191;SDS011;2615;44.524;11.284;2023-11-21T02:40:18;45.70;;;30.70;;
5191;SDS011;2615;44.524;11.284;2023-11-21T02:42:47;47.90;;;34.27;;
5191;SDS011;2615;44.524;11.284;2023-11-21T02:45:18;48.57;;;30.87;;
5191;SDS011;2615;44.524;11.284;2023-11-21T02:47:47;51.20;;;34.30;;
5191;SDS011;2615;44.524;11.284;2023-11-21T02:50:16;45.60;;;33.20;;
5191;SDS011;2615;44.524;11.284;2023-11-21T02:52:46;47.23;;;34.00;;
5191;SDS011;2615;44.524;11.284;2023-11-21T02:55:16;48.27;;;33.40;;
5191;SDS011;2615;44.524;11.284;2023-11-21T02:57:45;49.87;;;35.57;;
5191;SDS011;2615;44.524;11.284;2023-11-21T03:00:13;56.60;;;38.90;;
5191;SDS011;2615;44.524;11.284;2023-11-21T03:02:41;48.80;;;35.07;;
5191;SDS011;2615;44.524;11.284;2023-11-21T03:05:10;44.03;;;33.57;;
5191;SDS011;2615;44.524;11.284;2023-11-21T03:07:39;49.63;;;34.87;;
5191;SDS011;2615;44.524;11.284;2023-11-21T03:10:07;56.07;;;37.27;;
5191;SDS011;2615;44.524;11.284;2023-11-21T03:12:39;51.20;;;36.03;;
5191;SDS011;2615;44.524;11.284;2023-11-21T03:15:07;63.70;;;37.90;;
5191;SDS011;2615;44.524;11.284;2023-11-21T03:17:36;50.10;;;36.10;;
5191;SDS011;2615;44.524;11.284;2023-11-21T03:20:05;52.33;;;37.20;;
5191;SDS011;2615;44.524;11.284;2023-11-21T03:22:37;50.00;;;33.03;;
5191;SDS011;2615;44.524;11.284;2023-11-21T03:25:06;48.77;;;35.47;;
5191;SDS011;2615;44.524;11.284;2023-11-21T03:27:40;53.10;;;33.63;;
5191;SDS011;2615;44.524;11.284;2023-11-21T03:30:08;53.53;;;36.53;;
5191;SDS011;2615;44.524;11.284;2023-11-21T03:32:38;51.33;;;34.37;;
5191;SDS011;2615;44.524;11.284;2023-11-21T03:35:06;49.20;;;36.53;;
5191;SDS011;2615;44.524;11.284;2023-11-21T03:37:35;49.13;;;35.73;;
5191;SDS011;2615;44.524;11.284;2023-11-21T03:40:05;53.43;;;36.33;;
5191;SDS011;2615;44.524;11.284;2023-11-21T03:42:35;49.93;;;37.37;;
5191;SDS011;2615;44.524;11.284;2023-11-21T03:45:05;52.37;;;37.00;;
5191;SDS011;2615;44.524;11.284;2023-11-21T03:47:35;46.80;;;33.37;;
5191;SDS011;2615;44.524;11.284;2023-11-21T03:50:03;61.87;;;41.10;;
5191;SDS011;2615;44.524;11.284;2023-11-21T03:52:32;57.53;;;37.67;;
5191;SDS011;2615;44.524;11.284;2023-11-21T03:55:01;52.07;;;34.57;;
5191;SDS011;2615;44.524;11.284;2023-11-21T03:57:30;50.90;;;36.43;;
5191;SDS011;2615;44.524;11.284;2023-11-21T03:59:58;53.90;;;34.63;;
5191;SDS011;2615;44.524;11.284;2023-11-21T04:02:27;54.67;;;39.80;;
5191;SDS011;2615;44.524;11.284;2023-11-21T04:04:58;52.43;;;37.63;;
5191;SDS011;2615;44.524;11.284;2023-11-21T04:07:26;56.67;;;36.87;;
5191;SDS011;2615;44.524;11.284;2023-11-21T04:09:54;67.07;;;40.90;;
5191;SDS011;2615;44.524;11.284;2023-11-21T04:12:23;54.47;;;38.67;;
5191;SDS011;2615;44.524;11.284;2023-11-21T04:14:51;51.67;;;37.30;;
5191;SDS011;2615;44.524;11.284;2023-11-21T04:17:21;56.40;;;37.53;;
5191;SDS011;2615;44.524;11.284;2023-11-21T04:19:51;55.47;;;37.70;;
5191;SDS011;2615;44.524;11.284;2023-11-21T04:22:19;55.30;;;38.03;;
5191;SDS011;2615;44.524;11.284;2023-11-21T04:24:47;52.07;;;37.10;;
5191;SDS011;2615;44.524;11.284;2023-11-21T04:27:15;60.50;;;40.53;;
5191;SDS011;2615;44.524;11.284;2023-11-21T04:29:44;56.70;;;39.93;;
5191;SDS011;2615;44.524;11.284;2023-11-21T04:32:12;61.10;;;40.00;;
5191;SDS011;2615;44.524;11.284;2023-11-21T04:34:40;60.47;;;41.50;;
5191;SDS011;2615;44.524;11.284;2023-11-21T04:37:10;69.13;;;42.77;;
5191;SDS011;2615;44.524;11.284;2023-11-21T04:39:38;61.33;;;40.57;;
5191;SDS011;2615;44.524;11.284;2023-11-21T04:42:06;64.30;;;39.00;;
5191;SDS011;2615;44.524;11.284;2023-11-21T04:44:34;67.50;;;43.00;;
5191;SDS011;2615;44.524;11.284;2023-11-21T04:47:03;64.80;;;43.93;;
5191;SDS011;2615;44.524;11.284;2023-11-21T04:49:31;58.10;;;40.50;;
5191;SDS011;2615;44.524;11.284;2023-11-21T04:51:59;55.90;;;37.90;;
5191;SDS011;2615;44.524;11.284;2023-11-21T04:54:31;63.27;;;41.20;;
5191;SDS011;2615;44.524;11.284;2023-11-21T04:56:59;60.83;;;41.83;;
5191;SDS011;2615;44.524;11.284;2023-11-21T04:59:27;61.03;;;42.67;;
5191;SDS011;2615;44.524;11.284;2023-11-21T05:01:55;60.27;;;40.60;;
5191;SDS011;2615;44.524;11.284;2023-11-21T05:04:23;58.67;;;38.93;;
5191;SDS011;2615;44.524;11.284;2023-11-21T05:06:52;64.47;;;45.47;;
5191;SDS011;2615;44.524;11.284;2023-11-21T05:09:20;62.77;;;42.40;;
5191;SDS011;2615;44.524;11.284;2023-11-21T05:11:50;61.63;;;39.60;;
5191;SDS011;2615;44.524;11.284;2023-11-21T05:14:19;72.23;;;43.97;;
5191;SDS011;2615;44.524;11.284;2023-11-21T05:16:47;59.00;;;39.83;;
5191;SDS011;2615;44.524;11.284;2023-11-21T05:19:17;61.50;;;40.13;;
5191;SDS011;2615;44.524;11.284;2023-11-21T05:21:45;71.17;;;45.90;;
5191;SDS011;2615;44.524;11.284;2023-11-21T05:24:13;60.30;;;40.23;;
5191;SDS011;2615;44.524;11.284;2023-11-21T05:26:41;69.20;;;42.70;;
5191;SDS011;2615;44.524;11.284;2023-11-21T05:29:11;64.00;;;41.03;;
5191;SDS011;2615;44.524;11.284;2023-11-21T05:31:39;60.23;;;40.10;;
5191;SDS011;2615;44.524;11.284;2023-11-21T05:34:07;63.60;;;43.77;;
5191;SDS011;2615;44.524;11.284;2023-11-21T05:36:35;70.87;;;43.57;;
5191;SDS011;2615;44.524;11.284;2023-11-21T05:39:03;64.30;;;43.33;;
5191;SDS011;2615;44.524;11.284;2023-11-21T05:41:31;76.50;;;42.30;;
5191;SDS011;2615;44.524;11.284;2023-11-21T05:44:00;66.63;;;43.43;;
5191;SDS011;2615;44.524;11.284;2023-11-21T05:46:30;70.90;;;42.50;;
5191;SDS011;2615;44.524;11.284;2023-11-21T05:48:58;65.80;;;42.10;;
5191;SDS011;2615;44.524;11.284;2023-11-21T05:51:26;68.87;;;45.33;;
5191;SDS011;2615;44.524;11.284;2023-11-21T05:53:54;66.63;;;41.40;;
5191;SDS011;2615;44.524;11.284;2023-11-21T05:56:22;62.53;;;42.40;;
5191;SDS011;2615;44.524;11.284;2023-11-21T05:58:50;69.80;;;44.47;;
5191;SDS011;2615;44.524;11.284;2023-11-21T06:01:19;57.80;;;41.07;;
5191;SDS011;2615;44.524;11.284;2023-11-21T06:03:49;70.90;;;43.77;;
5191;SDS011;2615;44.524;11.284;2023-11-21T06:06:17;60.10;;;40.20;;
5191;SDS011;2615;44.524;11.284;2023-11-21T06:08:45;72.23;;;42.07;;
5191;SDS011;2615;44.524;11.284;2023-11-21T06:11:13;73.03;;;43.20;;
5191;SDS011;2615;44.524;11.284;2023-11-21T06:13:42;66.50;;;44.23;;
5191;SDS011;2615;44.524;11.284;2023-11-21T06:16:11;67.30;;;42.20;;
5191;SDS011;2615;44.524;11.284;2023-11-21T06:18:42;73.70;;;41.60;;
5191;SDS011;2615;44.524;11.284;2023-11-21T06:21:12;74.13;;;43.10;;
5191;SDS011;2615;44.524;11.284;2023-11-21T06:23:42;77.10;;;47.77;;
5191;SDS011;2615;44.524;11.284;2023-11-21T06:26:11;66.77;;;44.50;;
5191;SDS011;2615;44.524;11.284;2023-11-21T06:28:39;69.90;;;41.57;;
5191;SDS011;2615;44.524;11.284;2023-11-21T06:31:07;64.70;;;40.37;;
5191;SDS011;2615;44.524;11.284;2023-11-21T06:33:37;67.53;;;43.70;;
5191;SDS011;2615;44.524;11.284;2023-11-21T06:36:05;63.57;;;41.60;;
5191;SDS011;2615;44.524;11.284;2023-11-21T06:38:35;63.63;;;41.70;;
5191;SDS011;2615;44.524;11.284;2023-11-21T06:41:03;65.67;;;39.93;;
5191;SDS011;2615;44.524;11.284;2023-11-21T06:43:32;69.20;;;40.57;;
5191;SDS011;2615;44.524;11.284;2023-11-21T06:46:00;62.77;;;39.47;;
5191;SDS011;2615;44.524;11.284;2023-11-21T06:48:28;87.57;;;58.47;;
5191;SDS011;2615;44.524;11.284;2023-11-21T06:50:57;70.63;;;48.73;;
5191;SDS011;2615;44.524;11.284;2023-11-21T06:53:25;69.13;;;48.50;;
5191;SDS011;2615;44.524;11.284;2023-11-21T06:55:55;65.87;;;44.17;;
5191;SDS011;2615;44.524;11.284;2023-11-21T06:58:23;71.10;;;45.03;;
5191;SDS011;2615;44.524;11.284;2023-11-21T07:00:51;78.20;;;49.20;;
5191;SDS011;2615;44.524;11.284;2023-11-21T07:03:21;71.07;;;41.73;;
5191;SDS011;2615;44.524;11.284;2023-11-21T07:05:50;67.47;;;42.23;;
5191;SDS011;2615;44.524;11.284;2023-11-21T07:08:18;67.60;;;43.87;;
5191;SDS011;2615;44.524;11.284;2023-11-21T07:10:47;68.70;;;42.63;;
5191;SDS011;2615;44.524;11.284;2023-11-21T07:13:16;80.43;;;48.10;;
5191;SDS011;2615;44.524;11.284;2023-11-21T07:15:45;78.27;;;45.80;;
5191;SDS011;2615;44.524;11.284;2023-11-21T07:18:13;76.03;;;45.37;;
5191;SDS011;2615;44.524;11.284;2023-11-21T07:20:41;79.57;;;48.17;;
5191;SDS011;2615;44.524;11.284;2023-11-21T07:23:09;69.80;;;46.67;;
5191;SDS011;2615;44.524;11.284;2023-11-21T07:25:38;86.67;;;50.50;;
5191;SDS011;2615;44.524;11.284;2023-11-21T07:28:08;72.20;;;43.33;;
5191;SDS011;2615;44.524;11.284;2023-11-21T07:30:37;67.53;;;44.73;;
5191;SDS011;2615;44.524;11.284;2023-11-21T07:33:05;71.97;;;44.83;;
5191;SDS011;2615;44.524;11.284;2023-11-21T07:35:34;73.97;;;46.87;;
5191;SDS011;2615;44.524;11.284;2023-11-21T07:38:03;76.83;;;45.87;;
5191;SDS011;2615;44.524;11.284;2023-11-21T07:40:31;72.57;;;46.70;;
5191;SDS011;2615;44.524;11.284;2023-11-21T07:42:59;73.67;;;47.20;;
5191;SDS011;2615;44.524;11.284;2023-11-21T07:45:27;75.63;;;49.63;;
5191;SDS011;2615;44.524;11.284;2023-11-21T07:47:57;75.27;;;49.23;;
5191;SDS011;2615;44.524;11.284;2023-11-21T07:50:27;72.20;;;44.73;;
5191;SDS011;2615;44.524;11.284;2023-11-21T07:52:55;82.10;;;47.93;;
5191;SDS011;2615;44.524;11.284;2023-11-21T07:55:23;79.13;;;47.30;;
5191;SDS011;2615;44.524;11.284;2023-11-21T07:57:51;87.13;;;52.00;;
5191;SDS011;2615;44.524;11.284;2023-11-21T08:00:20;80.40;;;47.23;;
5191;SDS011;2615;44.524;11.284;2023-11-21T08:02:48;99.40;;;51.40;;
5191;SDS011;2615;44.524;11.284;2023-11-21T08:05:18;86.20;;;48.80;;
5191;SDS011;2615;44.524;11.284;2023-11-21T08:07:57;78.83;;;47.33;;
5191;SDS011;2615;44.524;11.284;2023-11-21T08:10:25;78.90;;;48.70;;
5191;SDS011;2615;44.524;11.284;2023-11-21T08:12:54;80.87;;;46.40;;
5191;SDS011;2615;44.524;11.284;2023-11-21T08:15:22;80.47;;;46.77;;
5191;SDS011;2615;44.524;11.284;2023-11-21T08:17:50;81.33;;;48.00;;
5191;SDS011;2615;44.524;11.284;2023-11-21T08:20:20;83.93;;;48.53;;
5191;SDS011;2615;44.524;11.284;2023-11-21T08:22:49;86.50;;;50.67;;
5191;SDS011;2615;44.524;11.284;2023-11-21T08:25:18;81.37;;;49.67;;
5191;SDS011;2615;44.524;11.284;2023-11-21T08:27:47;90.60;;;52.10;;
5191;SDS011;2615;44.524;11.284;2023-11-21T08:30:15;78.97;;;50.57;;
5191;SDS011;2615;44.524;11.284;2023-11-21T08:32:45;85.63;;;51.17;;
5191;SDS011;2615;44.524;11.284;2023-11-21T08:35:14;80.90;;;49.60;;
5191;SDS011;2615;44.524;11.284;2023-11-21T08:37:43;85.63;;;54.30;;
5191;SDS011;2615;44.524;11.284;2023-11-21T08:40:12;89.83;;;57.57;;
5191;SDS011;2615;44.524;11.284;2023-11-21T08:42:43;103.83;;;61.83;;
5191;SDS011;2615;44.524;11.284;2023-11-21T08:45:12;115.63;;;66.23;;
5191;SDS011;2615;44.524;11.284;2023-11-21T08:47:40;122.80;;;67.17;;
5191;SDS011;2615;44.524;11.284;2023-11-21T08:50:10;106.93;;;62.93;;
5191;SDS011;2615;44.524;11.284;2023-11-21T08:52:39;109.70;;;68.10;;
5191;SDS011;2615;44.524;11.284;2023-11-21T08:55:09;112.47;;;65.03;;
5191;SDS011;2615;44.524;11.284;2023-11-21T08:57:39;103.17;;;62.47;;
5191;SDS011;2615;44.524;11.284;2023-11-21T09:00:08;111.17;;;63.57;;
5191;SDS011;2615;44.524;11.284;2023-11-21T09:02:38;102.33;;;60.40;;
5191;SDS011;2615;44.524;11.284;2023-11-21T09:05:08;103.20;;;62.20;;
5191;SDS011;2615;44.524;11.284;2023-11-21T09:07:38;110.90;;;65.30;;
5191;SDS011;2615;44.524;11.284;2023-11-21T09:10:09;96.50;;;61.00;;
5191;SDS011;2615;44.524;11.284;2023-11-21T09:12:38;98.67;;;63.03;;
5191;SDS011;2615;44.524;11.284;2023-11-21T09:15:06;109.67;;;65.23;;
5191;SDS011;2615;44.524;11.284;2023-11-21T09:17:38;92.93;;;55.73;;
5191;SDS011;2615;44.524;11.284;2023-11-21T09:20:07;108.00;;;59.17;;
5191;SDS011;2615;44.524;11.284;2023-11-21T09:22:37;115.10;;;62.00;;
5191;SDS011;2615;44.524;11.284;2023-11-21T09:25:05;107.50;;;62.80;;
5191;SDS011;2615;44.524;11.284;2023-11-21T09:27:36;97.70;;;57.70;;
5191;SDS011;2615;44.524;11.284;2023-11-21T09:30:05;106.50;;;62.80;;
5191;SDS011;2615;44.524;11.284;2023-11-21T09:32:37;105.10;;;61.90;;
5191;SDS011;2615;44.524;11.284;2023-11-21T09:35:07;94.27;;;56.90;;
5191;SDS011;2615;44.524;11.284;2023-11-21T09:37:36;96.37;;;61.00;;
5191;SDS011;2615;44.524;11.284;2023-11-21T09:40:06;103.47;;;58.53;;
5191;SDS011;2615;44.524;11.284;2023-11-21T09:42:43;117.30;;;65.50;;
5191;SDS011;2615;44.524;11.284;2023-11-21T09:45:17;92.90;;;60.00;;
5191;SDS011;2615;44.524;11.284;2023-11-21T09:47:50;99.63;;;60.33;;
5191;SDS011;2615;44.524;11.284;2023-11-21T09:50:20;111.67;;;64.23;;
5191;SDS011;2615;44.524;11.284;2023-11-21T09:52:57;103.40;;;59.97;;
5191;SDS011;2615;44.524;11.284;2023-11-21T09:55:28;107.73;;;60.20;;
5191;SDS011;2615;44.524;11.284;2023-11-21T09:58:03;92.83;;;58.77;;
5191;SDS011;2615;44.524;11.284;2023-11-21T10:00:34;107.23;;;60.90;;
5191;SDS011;2615;44.524;11.284;2023-11-21T10:03:02;101.43;;;63.93;;
5191;SDS011;2615;44.524;11.284;2023-11-21T10:05:30;112.47;;;62.23;;
5191;SDS011;2615;44.524;11.284;2023-11-21T10:08:00;109.10;;;64.37;;
5191;SDS011;2615;44.524;11.284;2023-11-21T10:10:29;119.40;;;67.50;;
5191;SDS011;2615;44.524;11.284;2023-11-21T10:13:01;112.20;;;65.97;;
5191;SDS011;2615;44.524;11.284;2023-11-21T10:15:34;97.47;;;57.87;;
5191;SDS011;2615;44.524;11.284;2023-11-21T10:18:03;117.47;;;65.60;;
5191;SDS011;2615;44.524;11.284;2023-11-21T10:20:32;103.17;;;64.20;;
5191;SDS011;2615;44.524;11.284;2023-11-21T10:23:01;113.20;;;61.70;;
5191;SDS011;2615;44.524;11.284;2023-11-21T10:25:30;102.00;;;60.00;;
5191;SDS011;2615;44.524;11.284;2023-11-21T10:27:58;113.00;;;64.90;;
5191;SDS011;2615;44.524;11.284;2023-11-21T10:30:29;115.03;;;64.40;;
5191;SDS011;2615;44.524;11.284;2023-11-21T10:33:03;120.63;;;64.30;;
5191;SDS011;2615;44.524;11.284;2023-11-21T10:35:39;117.57;;;64.00;;
5191;SDS011;2615;44.524;11.284;2023-11-21T10:38:13;123.50;;;62.53;;
5191;SDS011;2615;44.524;11.284;2023-11-21T10:40:41;110.83;;;60.63;;
5191;SDS011;2615;44.524;11.284;2023-11-21T10:43:11;120.70;;;64.23;;
5191;SDS011;2615;44.524;11.284;2023-11-21T10:45:43;121.07;;;67.27;;
5191;SDS011;2615;44.524;11.284;2023-11-21T10:48:12;110.73;;;67.40;;
5191;SDS011;2615;44.524;11.284;2023-11-21T10:50:43;109.40;;;61.47;;
5191;SDS011;2615;44.524;11.284;2023-11-21T10:53:12;97.07;;;59.83;;
5191;SDS011;2615;44.524;11.284;2023-11-21T10:55:42;111.90;;;60.20;;
5191;SDS011;2615;44.524;11.284;2023-11-21T10:58:13;87.13;;;52.13;;
5191;SDS011;2615;44.524;11.284;2023-11-21T11:00:43;99.87;;;55.27;;
5191;SDS011;2615;44.524;11.284;2023-11-21T11:03:12;87.33;;;50.50;;
5191;SDS011;2615;44.524;11.284;2023-11-21T11:05:43;95.20;;;55.57;;
5191;SDS011;2615;44.524;11.284;2023-11-21T11:08:19;97.53;;;53.30;;
5191;SDS011;2615;44.524;11.284;2023-11-21T11:10:54;81.33;;;48.47;;
5191;SDS011;2615;44.524;11.284;2023-11-21T11:13:22;85.27;;;48.90;;
5191;SDS011;2615;44.524;11.284;2023-11-21T11:15:57;89.07;;;49.20;;
5191;SDS011;2615;44.524;11.284;2023-11-21T11:18:28;97.50;;;50.87;;
5191;SDS011;2615;44.524;11.284;2023-11-21T11:20:58;182.50;;;102.60;;
5191;SDS011;2615;44.524;11.284;2023-11-21T11:23:40;111.20;;;68.53;;
5191;SDS011;2615;44.524;11.284;2023-11-21T11:26:20;81.00;;;47.33;;
5191;SDS011;2615;44.524;11.284;2023-11-21T11:29:01;70.93;;;43.83;;
5191;SDS011;2615;44.524;11.284;2023-11-21T11:31:39;70.43;;;41.67;;
5191;SDS011;2615;44.524;11.284;2023-11-21T11:34:17;82.03;;;45.00;;
5191;SDS011;2615;44.524;11.284;2023-11-21T11:36:54;68.20;;;42.47;;
5191;SDS011;2615;44.524;11.284;2023-11-21T11:39:34;69.57;;;45.53;;
5191;SDS011;2615;44.524;11.284;2023-11-21T11:42:04;71.83;;;41.67;;
5191;SDS011;2615;44.524;11.284;2023-11-21T11:44:46;79.23;;;44.40;;
5191;SDS011;2615;44.524;11.284;2023-11-21T11:47:21;69.97;;;40.27;;
5191;SDS011;2615;44.524;11.284;2023-11-21T11:50:05;74.63;;;42.00;;
5191;SDS011;2615;44.524;11.284;2023-11-21T11:52:39;69.33;;;39.33;;
5191;SDS011;2615;44.524;11.284;2023-11-21T11:55:10;59.43;;;39.50;;
5191;SDS011;2615;44.524;11.284;2023-11-21T11:57:40;75.60;;;38.30;;
5191;SDS011;2615;44.524;11.284;2023-11-21T12:00:13;61.97;;;41.20;;
5191;SDS011;2615;44.524;11.284;2023-11-21T12:02:48;65.60;;;37.37;;
5191;SDS011;2615;44.524;11.284;2023-11-21T12:05:18;60.20;;;39.60;;
5191;SDS011;2615;44.524;11.284;2023-11-21T12:07:48;77.10;;;40.23;;
5191;SDS011;2615;44.524;11.284;2023-11-21T12:10:20;66.20;;;42.30;;
5191;SDS011;2615;44.524;11.284;2023-11-21T12:12:51;69.87;;;38.60;;
5191;SDS011;2615;44.524;11.284;2023-11-21T12:15:23;70.47;;;38.90;;
5191;SDS011;2615;44.524;11.284;2023-11-21T12:17:53;59.67;;;37.07;;
5191;SDS011;2615;44.524;11.284;2023-11-21T12:20:22;64.47;;;38.30;;
5191;SDS011;2615;44.524;11.284;2023-11-21T12:22:51;57.97;;;38.13;;
5191;SDS011;2615;44.524;11.284;2023-11-21T12:25:21;60.67;;;36.23;;
5191;SDS011;2615;44.524;11.284;2023-11-21T12:27:50;68.47;;;38.17;;
5191;SDS011;2615;44.524;11.284;2023-11-21T12:30:19;71.93;;;40.07;;
5191;SDS011;2615;44.524;11.284;2023-11-21T12:32:49;62.33;;;39.00;;
5191;SDS011;2615;44.524;11.284;2023-11-21T12:35:23;60.67;;;37.50;;
5191;SDS011;2615;44.524;11.284;2023-11-21T12:37:53;66.97;;;41.37;;
5191;SDS011;2615;44.524;11.284;2023-11-21T12:40:24;69.63;;;38.93;;
5191;SDS011;2615;44.524;11.284;2023-11-21T12:42:52;74.63;;;37.27;;
5191;SDS011;2615;44.524;11.284;2023-11-21T12:45:22;65.40;;;44.27;;
5191;SDS011;2615;44.524;11.284;2023-11-21T12:47:54;67.03;;;40.07;;
5191;SDS011;2615;44.524;11.284;2023-11-21T12:50:28;67.17;;;41.67;;
5191;SDS011;2615;44.524;11.284;2023-11-21T12:52:59;70.70;;;43.27;;
5191;SDS011;2615;44.524;11.284;2023-11-21T12:55:30;70.13;;;40.40;;
5191;SDS011;2615;44.524;11.284;2023-11-21T12:58:00;68.10;;;39.17;;
5191;SDS011;2615;44.524;11.284;2023-11-21T13:00:36;91.80;;;59.50;;
5191;SDS011;2615;44.524;11.284;2023-11-21T13:03:10;73.73;;;47.00;;
5191;SDS011;2615;44.524;11.284;2023-11-21T13:05:45;72.40;;;44.97;;
5191;SDS011;2615;44.524;11.284;2023-11-21T13:08:18;70.57;;;48.60;;
5191;SDS011;2615;44.524;11.284;2023-11-21T13:10:50;73.37;;;48.40;;
5191;SDS011;2615;44.524;11.284;2023-11-21T13:13:20;84.53;;;53.00;;
5191;SDS011;2615;44.524;11.284;2023-11-21T13:15:51;74.77;;;47.33;;
5191;SDS011;2615;44.524;11.284;2023-11-21T13:18:22;70.77;;;46.10;;
5191;SDS011;2615;44.524;11.284;2023-11-21T13:20:52;76.63;;;43.10;;
5191;SDS011;2615;44.524;11.284;2023-11-21T13:23:21;72.93;;;46.17;;
5191;SDS011;2615;44.524;11.284;2023-11-21T13:25:50;62.87;;;39.47;;
5191;SDS011;2615;44.524;11.284;2023-11-21T13:28:27;71.37;;;43.00;;
5191;SDS011;2615;44.524;11.284;2023-11-21T13:30:59;82.20;;;42.53;;
5191;SDS011;2615;44.524;11.284;2023-11-21T13:33:36;67.00;;;38.90;;
5191;SDS011;2615;44.524;11.284;2023-11-21T13:36:07;59.30;;;38.27;;
5191;SDS011;2615;44.524;11.284;2023-11-21T13:38:37;65.87;;;42.00;;
5191;SDS011;2615;44.524;11.284;2023-11-21T13:41:09;75.17;;;44.10;;
5191;SDS011;2615;44.524;11.284;2023-11-21T13:43:40;74.80;;;43.90;;
5191;SDS011;2615;44.524;11.284;2023-11-21T13:46:10;80.37;;;45.33;;
5191;SDS011;2615;44.524;11.284;2023-11-21T13:48:43;69.93;;;41.70;;
5191;SDS011;2615;44.524;11.284;2023-11-21T13:51:19;74.57;;;41.50;;
5191;SDS011;2615;44.524;11.284;2023-11-21T13:53:55;75.03;;;41.57;;
5191;SDS011;2615;44.524;11.284;2023-11-21T13:56:24;72.83;;;41.77;;
5191;SDS011;2615;44.524;11.284;2023-11-21T13:58:54;71.57;;;40.37;;
5191;SDS011;2615;44.524;11.284;2023-11-21T14:01:24;73.00;;;43.03;;
5191;SDS011;2615;44.524;11.284;2023-11-21T14:04:11;80.93;;;42.67;;
5191;SDS011;2615;44.524;11.284;2023-11-21T14:06:49;87.90;;;44.23;;
5191;SDS011;2615;44.524;11.284;2023-11-21T14:09:21;74.97;;;46.30;;
5191;SDS011;2615;44.524;11.284;2023-11-21T14:11:52;77.77;;;44.90;;
5191;SDS011;2615;44.524;11.284;2023-11-21T14:14:24;71.80;;;43.77;;
5191;SDS011;2615;44.524;11.284;2023-11-21T14:16:53;76.20;;;44.70;;
5191;SDS011;2615;44.524;11.284;2023-11-21T14:19:22;79.17;;;42.80;;
5191;SDS011;2615;44.524;11.284;2023-11-21T14:21:55;74.60;;;43.03;;
5191;SDS011;2615;44.524;11.284;2023-11-21T14:24:23;70.80;;;45.73;;
5191;SDS011;2615;44.524;11.284;2023-11-21T14:26:52;67.77;;;39.53;;
5191;SDS011;2615;44.524;11.284;2023-11-21T14:29:20;88.20;;;40.90;;
5191;SDS011;2615;44.524;11.284;2023-11-21T14:31:50;76.87;;;43.50;;
5191;SDS011;2615;44.524;11.284;2023-11-21T14:34:22;67.83;;;40.30;;
5191;SDS011;2615;44.524;11.284;2023-11-21T14:36:51;72.00;;;41.17;;
5191;SDS011;2615;44.524;11.284;2023-11-21T14:39:20;72.23;;;41.87;;
5191;SDS011;2615;44.524;11.284;2023-11-21T14:41:50;70.70;;;39.47;;
5191;SDS011;2615;44.524;11.284;2023-11-21T14:44:19;79.73;;;47.17;;
5191;SDS011;2615;44.524;11.284;2023-11-21T14:46:52;83.17;;;48.03;;
5191;SDS011;2615;44.524;11.284;2023-11-21T14:49:24;76.47;;;44.63;;